Help Support FanGraphs



Rene Rivera
Birthdate: 7/31/1983 (33 y, 7 m, 22 d)     Bats/Throws: R/R     Height/Weight: 5-10/210     Position: C
Drafted: 2001 June Amateur Draft - Round: 2, Pick: 5, Overall: 49, Team: Seattle Mariners
Contract: $1.8M / 1 Years (2017)
RotoWire News: Rivera agreed to a one-year, $1.75 million deal with the Mets on Friday, avoiding arbitration, FanRag Sports' Jon Heyman reports. (12/2/2016)
Profiles:  2015  2016  2017  (Click Year to Expand / Close)
Profile: Rene Rivera wasn’t even on the Mets depth chart when the season started. d’Arnaud was the uncontested starting catcher, Plawecki his backup, and Johnny Monell sitting in AAA if needed. Unfortunately, injury befell d’Arnaud, Plawecki never hit, and the pitching staff was giving up a tremendous number of stolen bases. Rene Rivera’s strong arm and pitch framing locked him into the starting role for the majority of the season out of defensive necessity. He managed a career high HR/FB%, but it appears largely due to a significant drop in flyball rate. Otherwise his offense is very poor, among the worst in the league. (Andrew Perpetua)

The Quick Opinion: It remains to be seen what the Mets will do with their catching situation, it is hard to believe Rivera will be their starter in 2017. Odds are the Rivera will slide into the backup catcher role.

If you would like to make a projection for this player, please Log In or Register.




Season: 
   Dates: 
to
   

DateTeamOppBOPosO-Swing%Z-Swing%Swing%O-Contact%Z-Contact%Contact%Zone%Pace
Total- - -- - -- - -- - -44.6 %70.3 %57.4 %53.7 %85.9 %73.4 %50.0 %23.0
DateTeamOppBOPosO-Swing%Z-Swing%Swing%O-Contact%Z-Contact%Contact%Zone%Pace
2013-09-25SDPARI8C50.0 %50.0 %50.0 %100.0 %100.0 %100.0 %75.0 %16.6
2013-09-22SDPLAD8C33.3 %100.0 %60.0 %50.0 %100.0 %83.3 %40.0 %22.1
2013-09-18SDP@PIT8C66.7 %66.7 %66.7 %100.0 %100.0 %100.0 %66.7 %19.9
2013-09-16SDP@PIT8C66.7 %42.9 %53.9 %0.0 %100.0 %42.9 %53.9 %29.1
2013-09-13SDP@ATL8C25.0 %83.3 %60.0 %100.0 %100.0 %100.0 %60.0 %29.1
2013-09-10SDP@PHI8C50.0 %66.7 %54.6 %25.0 %100.0 %50.0 %27.3 %22.6
2013-09-08SDPCOL8C54.6 %100.0 %64.3 %83.3 %100.0 %88.9 %21.4 %34.8
2013-08-31SDP@LAD8C60.0 %66.7 %62.5 %33.3 %100.0 %60.0 %37.5 %19.2
2013-08-27SDP@ARI4PH33.3 %75.0 %57.1 %100.0 %66.7 %75.0 %57.1 %26.8
2013-08-25SDPCHC8C40.0 %100.0 %66.7 %50.0 %50.0 %50.0 %44.4 %19.9
2013-08-21SDPPIT8C75.0 %60.0 %66.7 %66.7 %33.3 %50.0 %55.6 %21.4
2013-08-16SDPNYM8C57.1 %40.0 %50.0 %50.0 %100.0 %66.7 %41.7 %27.3
2013-08-15SDPNYM8C42.9 %100.0 %63.6 %0.0 %100.0 %57.1 %36.4 %16.4
2013-08-14SDP@COL8C16.7 %71.4 %46.2 %0.0 %100.0 %83.3 %53.9 %21.9
2013-08-11SDP@CIN8C14.3 %57.1 %35.7 %100.0 %75.0 %80.0 %50.0 %22.8
2013-08-07SDPBAL8C33.3 %70.0 %56.3 %50.0 %71.4 %66.7 %62.5 %22.5
2013-07-31SDPCIN8C66.7 %100.0 %87.5 %100.0 %80.0 %85.7 %62.5 %26.8
2013-07-28SDP@ARI8C16.7 %62.5 %42.9 %0.0 %60.0 %50.0 %57.1 %16.7
2013-07-25SDP@MIL8C40.0 %75.0 %55.6 %75.0 %100.0 %90.0 %44.4 %22.1
2013-07-21SDP@STL8C50.0 %80.0 %66.7 %100.0 %75.0 %83.3 %55.6 %19.7
2013-07-13SDPSFG8C66.7 %60.0 %63.6 %25.0 %100.0 %57.1 %45.5 %23.5
2013-07-12SDPSFG7PH0.0 %100.0 %50.0 % 100.0 %100.0 %50.0 %16.0
2013-07-08SDPCOL8C100.0 %60.0 %66.7 %100.0 %100.0 %100.0 %83.3 %23.6